createdAt,value
2018-07-21T00:02:24.366Z,3.67
2018-07-21T00:04:51.736Z,3.47
2018-07-21T00:07:19.147Z,2.75
2018-07-21T00:09:46.604Z,2.50
2018-07-21T00:12:14.084Z,2.72
2018-07-21T00:14:41.522Z,2.80
2018-07-21T00:17:08.947Z,4.03
2018-07-21T00:19:36.374Z,2.55
2018-07-21T00:22:03.808Z,3.45
2018-07-21T00:24:31.282Z,2.62
2018-07-21T00:26:58.703Z,3.45
2018-07-21T00:29:26.145Z,3.53
2018-07-21T00:31:53.566Z,2.70
2018-07-21T00:34:20.993Z,2.87
2018-07-21T00:36:48.920Z,3.00
2018-07-21T00:39:16.404Z,2.20
2018-07-21T00:41:43.829Z,2.70
2018-07-21T00:44:11.266Z,2.10
2018-07-21T00:46:38.682Z,3.08
2018-07-21T00:49:06.144Z,2.25
2018-07-21T00:51:33.571Z,3.08
2018-07-21T00:54:01.003Z,2.42
2018-07-21T00:56:28.518Z,2.40
2018-07-21T00:58:55.976Z,2.65
2018-07-21T01:01:23.402Z,3.00
2018-07-21T01:03:50.910Z,3.12
2018-07-21T01:06:18.341Z,3.97
2018-07-21T01:08:45.791Z,3.37
2018-07-21T01:11:13.244Z,2.75
2018-07-21T01:13:40.673Z,3.53
2018-07-21T01:16:08.144Z,2.60
2018-07-21T01:18:35.627Z,2.40
2018-07-21T01:21:03.107Z,3.20
2018-07-21T01:23:30.529Z,3.30
2018-07-21T01:25:57.994Z,3.20
2018-07-21T01:28:25.466Z,2.78
2018-07-21T01:30:52.941Z,3.83
2018-07-21T01:33:20.380Z,2.78
2018-07-21T01:35:47.772Z,2.92
2018-07-21T01:38:15.238Z,5.30
2018-07-21T01:40:42.736Z,3.10
2018-07-21T01:43:10.185Z,4.25
2018-07-21T01:45:37.694Z,2.72
2018-07-21T01:48:05.272Z,3.42
2018-07-21T01:50:33.365Z,3.00
2018-07-21T01:53:00.799Z,2.53
2018-07-21T01:55:28.206Z,2.08
2018-07-21T01:57:55.694Z,2.90
2018-07-21T02:00:23.146Z,3.65
2018-07-21T02:02:50.595Z,3.10
2018-07-21T02:05:18.460Z,3.62
2018-07-21T02:07:45.895Z,3.72
2018-07-21T02:10:13.343Z,3.10
2018-07-21T02:12:40.832Z,3.33
2018-07-21T02:15:08.283Z,3.87
2018-07-21T02:17:35.720Z,3.58
2018-07-21T02:20:03.168Z,4.15
2018-07-21T02:22:30.644Z,3.03
2018-07-21T02:24:58.140Z,7.62
2018-07-21T02:27:25.547Z,3.67
2018-07-21T02:29:52.966Z,4.93
2018-07-21T02:32:20.443Z,3.22
2018-07-21T02:34:47.853Z,4.18
2018-07-21T02:37:15.303Z,3.75
2018-07-21T02:39:42.777Z,3.85
2018-07-21T02:42:10.227Z,4.03
2018-07-21T02:44:37.706Z,5.10
2018-07-21T02:47:05.138Z,4.25
2018-07-21T02:49:32.600Z,3.95
2018-07-21T02:52:00.007Z,4.50
2018-07-21T02:54:27.499Z,3.75
2018-07-21T02:56:54.947Z,4.43
2018-07-21T02:59:22.455Z,4.18
2018-07-21T03:01:49.887Z,2.97
2018-07-21T03:04:17.384Z,3.80
2018-07-21T03:06:44.869Z,3.85
2018-07-21T03:09:12.401Z,4.05
2018-07-21T03:11:39.895Z,3.28
2018-07-21T03:14:07.345Z,2.70
2018-07-21T03:16:34.795Z,3.33
2018-07-21T03:19:02.232Z,3.85
2018-07-21T03:21:29.721Z,4.12
2018-07-21T03:23:57.301Z,4.20
2018-07-21T03:26:24.854Z,4.03
2018-07-21T03:28:52.353Z,4.20
2018-07-21T03:31:19.821Z,5.32
2018-07-21T03:33:47.261Z,4.32
2018-07-21T03:36:14.711Z,4.82
2018-07-21T03:38:42.188Z,5.95
2018-07-21T03:41:09.641Z,4.37
2018-07-21T03:43:37.139Z,3.67
2018-07-21T03:46:04.616Z,3.47
2018-07-21T03:48:32.112Z,4.50
2018-07-21T03:50:59.579Z,4.00
2018-07-21T03:53:27.062Z,4.55
2018-07-21T03:55:54.524Z,4.97
2018-07-21T03:58:22.067Z,5.10
2018-07-21T04:00:49.533Z,4.60
2018-07-21T04:03:16.934Z,4.03
2018-07-21T04:05:44.452Z,4.35
2018-07-21T04:08:11.899Z,4.90
2018-07-21T04:10:39.309Z,4.78
2018-07-21T04:13:06.777Z,4.10
2018-07-21T04:15:34.213Z,5.55
2018-07-21T04:18:01.712Z,4.07
2018-07-21T04:20:29.118Z,3.35
2018-07-21T04:22:56.539Z,3.65
2018-07-21T04:25:23.995Z,2.95
2018-07-21T04:27:51.845Z,3.30
2018-07-21T04:30:19.284Z,5.00
2018-07-21T04:32:46.734Z,4.15
2018-07-21T04:35:14.145Z,3.55
2018-07-21T04:37:41.574Z,4.55
2018-07-21T04:40:09.133Z,2.97
2018-07-21T04:42:36.563Z,2.85
2018-07-21T04:45:04.028Z,2.50
2018-07-21T04:47:31.528Z,3.40
2018-07-21T04:49:58.958Z,3.30
2018-07-21T04:52:26.374Z,2.97
2018-07-21T04:54:53.860Z,3.37
2018-07-21T04:57:21.357Z,3.35
2018-07-21T04:59:48.865Z,2.83
2018-07-21T05:02:16.338Z,3.75
2018-07-21T05:04:43.875Z,2.80
2018-07-21T05:07:11.295Z,3.17
2018-07-21T05:09:38.787Z,3.60
2018-07-21T05:12:06.240Z,2.12
2018-07-21T05:14:33.634Z,2.17
2018-07-21T05:17:01.082Z,3.87
2018-07-21T05:19:28.592Z,1.98
2018-07-21T05:21:56.034Z,2.10
2018-07-21T05:24:23.474Z,2.22
2018-07-21T05:26:51.177Z,2.80
2018-07-21T05:29:18.576Z,2.90
2018-07-21T05:31:46.061Z,3.00
2018-07-21T05:34:13.480Z,1.90
2018-07-21T05:36:40.963Z,3.50
2018-07-21T05:39:08.472Z,3.08
2018-07-21T05:41:35.859Z,2.17
2018-07-21T05:44:03.336Z,2.55
2018-07-21T05:46:30.768Z,3.33
2018-07-21T05:48:58.269Z,3.67
2018-07-21T05:51:25.715Z,5.37
2018-07-21T05:53:53.175Z,3.37
2018-07-21T05:56:20.620Z,3.85
2018-07-21T05:58:48.045Z,4.68
2018-07-21T06:01:16.435Z,3.33
2018-07-21T06:03:44.614Z,2.70
2018-07-21T06:06:12.199Z,4.78
2018-07-21T06:08:39.692Z,3.05
2018-07-21T06:11:07.167Z,3.80
2018-07-21T06:13:34.608Z,3.83
2018-07-21T06:16:02.022Z,3.62
2018-07-21T06:18:29.531Z,3.42
2018-07-21T06:20:57.087Z,3.10
2018-07-21T06:23:24.552Z,2.70
2018-07-21T06:25:52.176Z,3.03
2018-07-21T06:28:19.611Z,2.45
2018-07-21T06:30:47.118Z,1.98
2018-07-21T06:33:15.848Z,2.87
2018-07-21T06:35:43.336Z,4.85
2018-07-21T06:38:10.811Z,2.67
2018-07-21T06:40:38.291Z,2.90
2018-07-21T06:43:05.800Z,2.62
2018-07-21T06:45:33.232Z,3.85
2018-07-21T06:48:00.722Z,2.80
2018-07-21T06:50:28.148Z,2.40
2018-07-21T06:52:55.616Z,2.78
2018-07-21T06:55:23.075Z,2.22
2018-07-21T06:57:50.507Z,2.55
2018-07-21T07:00:18.059Z,4.05
2018-07-21T07:02:45.488Z,3.53
2018-07-21T07:05:13.132Z,2.47
2018-07-21T07:07:40.610Z,4.32
2018-07-21T07:10:08.256Z,3.87
2018-07-21T07:12:35.703Z,5.53
2018-07-21T07:15:03.157Z,4.18
2018-07-21T07:17:30.640Z,3.87
2018-07-21T07:19:58.075Z,3.78
2018-07-21T07:22:25.519Z,3.33
2018-07-21T07:24:52.951Z,4.40
2018-07-21T07:27:21.443Z,5.18
2018-07-21T07:29:48.886Z,4.80
2018-07-21T07:32:16.343Z,4.97
2018-07-21T07:34:44.003Z,4.43
2018-07-21T07:37:11.493Z,6.28
2018-07-21T07:39:38.927Z,3.72
2018-07-21T07:42:06.485Z,5.47
2018-07-21T07:44:34.124Z,4.10
2018-07-21T07:47:01.612Z,4.20
2018-07-21T07:49:29.078Z,4.68
2018-07-21T07:51:56.550Z,4.22
2018-07-21T07:54:24.069Z,3.67
2018-07-21T07:56:51.550Z,4.78
2018-07-21T07:59:19.011Z,4.20
2018-07-21T08:01:46.476Z,3.28
2018-07-21T08:04:13.927Z,3.45
2018-07-21T08:06:41.369Z,3.95
2018-07-21T08:09:08.812Z,3.25
2018-07-21T08:11:36.210Z,2.92
2018-07-21T08:14:03.676Z,3.55
2018-07-21T08:16:31.149Z,4.57
2018-07-21T08:18:58.593Z,4.35
2018-07-21T08:21:26.046Z,4.20
2018-07-21T08:23:53.489Z,3.45
2018-07-21T08:26:21.201Z,3.53
2018-07-21T08:28:48.652Z,2.70
2018-07-21T08:31:16.111Z,3.40
2018-07-21T08:33:43.582Z,3.00
2018-07-21T08:36:11.047Z,2.80
2018-07-21T08:38:38.509Z,3.03
2018-07-21T08:41:05.966Z,2.80
2018-07-21T08:43:33.407Z,4.20
2018-07-21T08:46:00.955Z,3.85
2018-07-21T08:48:28.427Z,4.68
2018-07-21T08:50:56.141Z,4.57
2018-07-21T08:53:24.057Z,3.70
2018-07-21T08:55:51.625Z,2.95
2018-07-21T08:58:18.977Z,3.42
2018-07-21T09:00:46.463Z,2.87
2018-07-21T09:03:13.883Z,4.70
2018-07-21T09:05:41.377Z,4.50
2018-07-21T09:08:08.883Z,4.80
2018-07-21T09:10:36.313Z,3.03
2018-07-21T09:13:03.802Z,2.40
2018-07-21T09:15:31.266Z,4.47
2018-07-21T09:17:58.756Z,2.83
2018-07-21T09:20:26.224Z,3.03
2018-07-21T09:22:53.671Z,3.35
2018-07-21T09:25:21.163Z,3.20
2018-07-21T09:27:48.621Z,3.15
2018-07-21T09:30:16.135Z,2.47
2018-07-21T09:32:43.623Z,2.33
2018-07-21T09:35:11.252Z,3.20
2018-07-21T09:37:38.696Z,2.35
2018-07-21T09:40:06.229Z,2.72
2018-07-21T09:42:33.623Z,3.03
2018-07-21T09:45:01.146Z,2.62
2018-07-21T09:47:28.742Z,4.20
2018-07-21T09:49:56.200Z,4.97
2018-07-21T09:52:23.660Z,4.10
2018-07-21T09:54:51.089Z,47.00
2018-07-21T09:57:18.979Z,3.65
2018-07-21T09:59:46.467Z,4.25
2018-07-21T10:02:13.932Z,4.25
2018-07-21T10:04:41.395Z,4.90
2018-07-21T10:07:08.804Z,3.40
2018-07-21T10:09:36.267Z,4.05
2018-07-21T10:12:03.724Z,6.55
2018-07-21T10:14:31.581Z,4.75
2018-07-21T10:16:59.005Z,4.72
2018-07-21T10:19:26.483Z,5.22
2018-07-21T10:21:54.753Z,3.70
2018-07-21T10:24:22.575Z,5.12
2018-07-21T10:26:55.534Z,4.78
2018-07-21T10:29:23.007Z,5.70
2018-07-21T10:31:50.513Z,3.92
2018-07-21T10:34:17.942Z,5.87
2018-07-21T10:36:45.435Z,5.40
2018-07-21T10:39:12.898Z,3.95
2018-07-21T10:41:40.376Z,4.95
2018-07-21T10:44:08.057Z,5.53
2018-07-21T10:46:35.622Z,4.53
2018-07-21T10:49:03.100Z,4.95
2018-07-21T10:51:30.592Z,4.82
2018-07-21T10:53:58.019Z,5.43
2018-07-21T10:56:25.455Z,3.80
2018-07-21T10:58:53.000Z,3.25
2018-07-21T11:01:20.475Z,5.87
2018-07-21T11:03:47.933Z,4.75
2018-07-21T11:06:15.438Z,6.10
2018-07-21T11:08:42.898Z,5.35
2018-07-21T11:11:10.314Z,4.95
2018-07-21T11:13:37.777Z,6.50
2018-07-21T11:16:05.216Z,5.70
2018-07-21T11:18:32.868Z,5.90
2018-07-21T11:25:54.372Z,90.55
2018-07-21T11:28:21.857Z,7.62
2018-07-21T11:30:49.353Z,29.27
2018-07-21T11:33:16.907Z,49.45
2018-07-21T11:35:44.500Z,24.23
2018-07-21T11:38:11.847Z,17.10
2018-07-21T11:40:39.265Z,19.33
2018-07-21T11:43:06.720Z,59.45
2018-07-21T11:45:34.163Z,3.65
2018-07-21T11:48:01.732Z,5.47
2018-07-21T11:50:29.205Z,5.25
2018-07-21T11:52:56.683Z,4.93
2018-07-21T11:55:24.142Z,5.70
2018-07-21T11:57:51.612Z,4.85
2018-07-21T12:00:19.215Z,4.37
2018-07-21T12:02:46.745Z,4.40
2018-07-21T12:05:14.176Z,3.83
2018-07-21T12:07:41.634Z,4.28
2018-07-21T12:10:09.042Z,4.93
2018-07-21T12:12:36.709Z,4.25
2018-07-21T12:15:04.179Z,4.30
2018-07-21T12:20:05.371Z,5.60
2018-07-21T12:22:32.786Z,5.90
2018-07-21T12:25:00.317Z,4.40
2018-07-21T12:27:27.799Z,5.95
2018-07-21T12:29:55.249Z,4.78
2018-07-21T12:32:22.721Z,5.35
2018-07-21T12:34:50.211Z,4.30
2018-07-21T12:39:44.715Z,5.18
2018-07-21T12:42:12.226Z,5.18
2018-07-21T12:44:39.792Z,5.70
2018-07-21T12:47:07.251Z,5.50
2018-07-21T12:54:28.678Z,4.05
2018-07-21T12:56:56.081Z,5.10
2018-07-21T13:01:50.595Z,4.43
2018-07-21T13:04:19.793Z,6.03
2018-07-21T13:06:47.288Z,5.50
2018-07-21T13:09:14.780Z,5.75
2018-07-21T13:11:42.251Z,5.03
2018-07-21T13:43:29.130Z,5.75
2018-07-21T13:45:56.563Z,5.25
2018-07-21T13:48:24.029Z,6.95
2018-07-21T13:50:51.450Z,4.70
2018-07-21T13:53:18.923Z,5.82
2018-07-21T14:22:37.419Z,6.25
2018-07-21T14:25:04.818Z,4.53
2018-07-21T14:27:32.288Z,4.03
2018-07-21T14:29:59.897Z,7.72
2018-07-21T14:32:27.237Z,4.57
2018-07-21T14:34:54.676Z,5.10
2018-07-21T14:37:22.114Z,5.72
2018-07-21T14:39:49.538Z,5.05
2018-07-21T14:42:16.997Z,6.07
2018-07-21T14:44:44.446Z,4.80
2018-07-21T14:49:39.083Z,5.57
2018-07-21T14:52:06.624Z,4.90
2018-07-21T14:54:34.258Z,4.12
2018-07-21T14:57:01.894Z,5.00
2018-07-21T14:59:29.430Z,4.68
2018-07-21T15:01:56.860Z,4.62
2018-07-21T15:04:24.356Z,5.10
2018-07-21T15:06:51.810Z,4.90
2018-07-21T15:09:19.353Z,5.70
2018-07-21T15:11:46.973Z,5.07
2018-07-21T15:14:14.552Z,4.45
2018-07-21T15:16:42.032Z,5.72
2018-07-21T15:19:09.722Z,5.40
2018-07-21T15:21:37.147Z,4.97
2018-07-21T15:24:04.611Z,4.93
2018-07-21T15:26:32.544Z,4.70
2018-07-21T15:28:59.989Z,5.18
2018-07-21T15:31:27.391Z,4.35
2018-07-21T15:33:54.858Z,5.22
2018-07-21T15:36:22.270Z,5.57
2018-07-21T15:38:50.028Z,4.30
2018-07-21T15:41:17.530Z,4.82
2018-07-21T15:46:12.119Z,4.65
2018-07-21T15:48:39.782Z,3.92
2018-07-21T15:51:07.255Z,4.40
2018-07-21T15:53:34.726Z,5.00
2018-07-21T15:58:29.979Z,4.28
2018-07-21T16:00:57.386Z,5.12
2018-07-21T16:03:24.829Z,3.67
2018-07-21T16:05:52.349Z,6.25
2018-07-21T16:08:19.814Z,9.88
2018-07-21T16:10:47.873Z,6.05
2018-07-21T16:13:15.419Z,4.00
2018-07-21T16:15:42.908Z,4.75
2018-07-21T16:18:10.373Z,4.47
2018-07-21T16:20:37.873Z,8.90
2018-07-21T16:23:05.457Z,6.62
2018-07-21T16:25:32.934Z,5.10
2018-07-21T16:28:00.454Z,7.75
2018-07-21T16:30:27.984Z,6.25
2018-07-21T16:32:55.507Z,5.22
2018-07-21T16:35:22.945Z,5.45
2018-07-21T16:37:50.421Z,3.70
2018-07-21T16:42:44.930Z,6.50
2018-07-21T16:45:13.018Z,5.80
2018-07-21T16:47:40.506Z,5.85
2018-07-21T16:50:08.015Z,4.93
2018-07-21T16:52:35.521Z,4.65
2018-07-21T17:02:24.074Z,6.07
2018-07-21T17:04:51.529Z,4.95
2018-07-21T17:07:19.036Z,5.28
2018-07-21T17:09:46.441Z,4.05
2018-07-21T17:12:13.919Z,5.95
2018-07-21T17:14:41.394Z,4.45
2018-07-21T17:17:08.891Z,7.62
2018-07-21T17:19:36.377Z,4.95
2018-07-21T17:22:03.928Z,6.30
2018-07-21T17:24:31.507Z,5.93
2018-07-21T17:26:59.002Z,7.15
2018-07-21T17:29:26.471Z,8.25
2018-07-21T17:31:53.947Z,4.95
2018-07-21T17:34:21.402Z,6.87
2018-07-21T17:36:48.880Z,5.68
2018-07-21T17:39:16.671Z,5.10
2018-07-21T17:44:11.140Z,5.55
2018-07-21T17:46:38.619Z,5.55
2018-07-21T17:49:06.152Z,5.72
2018-07-21T17:51:33.816Z,5.97
2018-07-21T17:54:01.293Z,6.60
2018-07-21T17:56:28.835Z,6.07
2018-07-21T17:58:56.303Z,5.18
2018-07-21T18:01:23.824Z,4.87
2018-07-21T18:03:51.294Z,4.80
2018-07-21T18:06:18.736Z,4.72
2018-07-21T18:08:46.247Z,5.12
2018-07-21T18:11:13.714Z,4.78
2018-07-21T18:13:41.330Z,5.68
2018-07-21T18:16:08.867Z,6.53
2018-07-21T18:18:36.282Z,6.32
2018-07-21T18:21:03.925Z,4.70
2018-07-21T18:23:31.461Z,4.18
2018-07-21T18:25:59.012Z,5.05
2018-07-21T18:28:26.492Z,6.00
2018-07-21T18:30:54.149Z,4.10
2018-07-21T18:33:21.540Z,5.35
2018-07-21T18:35:49.024Z,7.03
2018-07-21T18:38:16.543Z,3.75
2018-07-21T18:40:43.999Z,38.65
2018-07-21T18:43:11.468Z,6.00
2018-07-21T18:45:39.094Z,6.90
2018-07-21T18:48:06.487Z,5.37
2018-07-21T18:53:00.922Z,4.10
2018-07-21T18:55:28.360Z,5.12
2018-07-21T18:57:55.816Z,4.62
2018-07-21T19:00:23.234Z,5.35
2018-07-21T19:02:50.750Z,5.75
2018-07-21T19:10:12.299Z,4.10
2018-07-21T19:12:39.776Z,4.80
2018-07-21T19:15:07.380Z,4.37
2018-07-21T19:17:34.844Z,4.65
2018-07-21T19:20:02.322Z,4.18
2018-07-21T19:22:29.773Z,4.43
2018-07-21T19:24:57.260Z,4.93
2018-07-21T19:27:31.676Z,4.30
2018-07-21T19:34:53.372Z,3.78
2018-07-21T19:37:20.873Z,4.43
2018-07-21T19:39:48.433Z,4.30
2018-07-21T19:44:42.834Z,5.10
2018-07-21T19:47:11.247Z,4.62
2018-07-21T19:56:59.963Z,4.10
2018-07-21T19:59:27.904Z,3.60
2018-07-21T20:01:55.521Z,6.13
2018-07-21T20:04:23.011Z,4.80
2018-07-21T20:06:50.531Z,4.80
2018-07-21T20:09:18.044Z,4.18
2018-07-21T20:11:45.532Z,4.12
2018-07-21T20:14:13.030Z,57.00
2018-07-21T20:16:40.483Z,54.10
2018-07-21T20:19:08.021Z,52.28
2018-07-21T20:21:35.553Z,52.90
2018-07-21T20:26:29.982Z,52.40
2018-07-21T20:28:57.511Z,50.58
2018-07-21T20:31:25.030Z,48.97
2018-07-21T20:33:52.689Z,48.00
2018-07-21T20:36:20.142Z,47.38
2018-07-21T20:38:47.660Z,48.50
2018-07-21T20:41:15.206Z,47.58
2018-07-21T20:43:42.667Z,52.70
2018-07-21T20:46:10.068Z,54.00
2018-07-21T20:48:37.525Z,59.38
2018-07-21T20:51:05.080Z,21.33
2018-07-21T20:53:32.637Z,14.40
2018-07-21T20:56:00.035Z,27.95
2018-07-21T20:58:27.507Z,4.30
2018-07-21T21:00:55.005Z,4.70
2018-07-21T21:03:22.497Z,3.62
2018-07-21T21:05:50.000Z,5.05
2018-07-21T21:08:17.409Z,3.80
2018-07-21T21:10:45.036Z,4.28
2018-07-21T21:13:12.543Z,3.72
2018-07-21T21:15:39.950Z,4.93
2018-07-21T21:18:07.446Z,3.28
2018-07-21T21:20:35.072Z,4.70
2018-07-21T21:23:02.784Z,4.70
2018-07-21T21:25:30.276Z,4.43
2018-07-21T21:27:57.919Z,4.53
2018-07-21T21:30:25.380Z,4.43
2018-07-21T21:32:52.873Z,3.92
2018-07-21T21:35:20.352Z,3.83
2018-07-21T21:37:47.821Z,5.10
2018-07-21T21:40:15.364Z,3.55
2018-07-21T21:42:42.999Z,4.00
2018-07-21T21:45:10.409Z,5.18
2018-07-21T21:47:37.817Z,4.40
2018-07-21T21:50:05.255Z,4.00
2018-07-21T21:52:33.674Z,5.82
2018-07-21T21:55:02.403Z,4.60
2018-07-21T21:57:29.915Z,4.50
2018-07-21T21:59:57.454Z,5.25
2018-07-21T22:02:25.468Z,3.72
2018-07-21T22:04:53.074Z,5.15
2018-07-21T22:07:20.807Z,3.67
2018-07-21T22:09:48.272Z,3.67
2018-07-21T22:12:15.779Z,4.62
2018-07-21T22:14:43.663Z,3.87
2018-07-21T22:17:11.473Z,4.20
2018-07-21T22:19:38.925Z,4.03
2018-07-21T22:22:06.372Z,3.42
2018-07-21T22:24:34.034Z,3.72
2018-07-21T22:27:01.523Z,3.87
2018-07-21T22:29:28.998Z,5.60
2018-07-21T22:31:56.451Z,4.25
2018-07-21T22:34:23.971Z,32.15
2018-07-21T22:36:51.418Z,32.58
2018-07-21T22:39:18.874Z,31.20
2018-07-21T22:41:46.380Z,32.15
2018-07-21T22:44:13.919Z,13.35
2018-07-21T22:46:41.301Z,3.92
2018-07-21T22:49:11.008Z,4.20
2018-07-21T22:51:38.626Z,5.28
2018-07-21T22:54:06.121Z,3.87
2018-07-21T22:56:33.531Z,3.95
2018-07-21T22:59:00.989Z,3.80
2018-07-21T23:01:28.490Z,5.07
2018-07-21T23:03:55.956Z,4.45
2018-07-21T23:06:23.432Z,4.65
2018-07-21T23:08:50.900Z,4.22
2018-07-21T23:11:18.388Z,4.80
2018-07-21T23:13:45.854Z,3.70
2018-07-21T23:16:13.298Z,4.95
2018-07-21T23:18:40.787Z,4.15
2018-07-21T23:21:08.383Z,4.78
2018-07-21T23:23:35.786Z,3.58
2018-07-21T23:26:03.228Z,3.95
2018-07-21T23:28:30.747Z,3.53
2018-07-21T23:30:58.209Z,4.50
2018-07-21T23:33:25.674Z,3.80
2018-07-21T23:35:53.137Z,4.20
2018-07-21T23:38:20.575Z,3.70
2018-07-21T23:40:48.007Z,4.45
2018-07-21T23:43:15.476Z,4.30
2018-07-21T23:45:42.983Z,4.85
2018-07-21T23:48:10.623Z,4.95
2018-07-21T23:50:38.181Z,3.80
2018-07-21T23:53:05.769Z,4.15
2018-07-21T23:55:33.254Z,4.03
2018-07-21T23:58:00.707Z,4.28
